Terminal Aerodrome Forecast
Issued by NWS Cleveland, OH

Home | Current Version | Previous Version | Graphics & Text | Print | Product List | Glossary On
Versions: 1 2 3 4 5 6 7 8 9 10 11 12 13 14 15 16 17 18 19 20 21 22 23 24 25 26 27 28 29 30 31 32 33 34 35 36 37 38 39 40 41 42
000
FTUS41 KCLE 041500 AAB
TAFCLE
TAF AMD
KCLE 041511Z 0415/0518 21015G25KT P6SM SCT050 BKN250
     FM042100 22012G22KT P6SM VCTS OVC050CB
      TEMPO 0423/0501 1 1/2SM -TSRA BR BKN025CB OVC035
     FM050200 22008KT P6SM VCSH SCT025 OVC035=

USA.gov is the U.S. government's official web portal to all federal, state and local government web resources and services.